Time;durP1;ratioP1;P1;durP2;ratioP2;P2;SDS_P1;SDS_P2;PMS_P1;PMS_P2;Temp;Humidity;BMP_temperature;BMP_pressure;BME280_temperature;BME280_humidity;BME280_pressure;Samples;Min_cycle;Max_cycle;Signal;HPM_P1;HPM_P2
2021/11/26 00:00:38;;;;;;;13.70;10.85;;;11.80;99.90;;;;;;5004683;28;20412;-78
2021/11/26 00:03:04;;;;;;;15.25;11.57;;;11.80;99.90;;;;;;5005412;28;20036;-80
2021/11/26 00:05:29;;;;;;;15.07;9.80;;;11.80;99.90;;;;;;5005278;28;20053;-78
2021/11/26 00:07:55;;;;;;;15.75;10.38;;;11.80;99.90;;;;;;5006715;28;20091;-81
2021/11/26 00:10:21;;;;;;;17.27;10.30;;;11.70;99.90;;;;;;5005734;28;20364;-82
2021/11/26 00:12:59;;;;;;;15.80;10.63;;;11.70;99.90;;;;;;5004480;28;20039;-76
2021/11/26 00:18:04;;;;;;;13.90;10.25;;;11.80;99.90;;;;;;5007479;28;20031;-81
2021/11/26 00:20:30;;;;;;;15.90;9.32;;;11.80;99.90;;;;;;4989144;28;20415;-81
2021/11/26 00:22:56;;;;;;;15.52;10.77;;;11.80;99.90;;;;;;5005765;28;20081;-82
2021/11/26 00:25:22;;;;;;;12.57;10.25;;;11.80;99.90;;;;;;5006916;28;20030;-80
2021/11/26 00:27:48;;;;;;;13.45;9.38;;;11.80;99.90;;;;;;5005121;28;20402;-81
2021/11/26 00:30:14;;;;;;;14.00;9.70;;;11.90;99.90;;;;;;4988213;28;20443;-82
2021/11/26 00:32:40;;;;;;;11.63;9.10;;;11.90;99.90;;;;;;5004260;28;20034;-77
2021/11/26 00:35:06;;;;;;;12.07;9.32;;;11.90;99.90;;;;;;5004740;28;20110;-79
2021/11/26 00:37:32;;;;;;;13.70;10.57;;;11.90;99.90;;;;;;5004992;28;20388;-80
2021/11/26 00:39:58;;;;;;;15.15;9.75;;;11.90;99.90;;;;;;5005055;28;20149;-82
2021/11/26 00:42:24;;;;;;;10.25;8.45;;;11.80;99.90;;;;;;5006231;28;20030;-81
2021/11/26 00:44:49;;;;;;;14.18;8.90;;;11.90;99.90;;;;;;5005537;28;20403;-82
2021/11/26 00:47:15;;;;;;;12.65;9.35;;;11.90;99.90;;;;;;4987558;28;20074;-80
2021/11/26 00:49:44;;;;;;;11.05;8.77;;;11.90;99.90;;;;;;5012566;28;20057;-75
2021/11/26 00:52:09;;;;;;;13.00;9.18;;;11.90;99.90;;;;;;5024298;28;20042;-82
2021/11/26 00:54:35;;;;;;;12.75;8.93;;;11.90;99.90;;;;;;5023080;28;20064;-81
2021/11/26 00:57:06;;;;;;;10.95;8.70;;;11.90;99.90;;;;;;5003915;28;20035;-82
2021/11/26 00:59:32;;;;;;;11.38;8.40;;;11.90;99.90;;;;;;5002039;28;20041;-82
2021/11/26 01:01:58;;;;;;;11.27;7.22;;;11.90;99.90;;;;;;5001591;28;20034;-80
2021/11/26 01:04:24;;;;;;;10.18;7.97;;;12.00;99.90;;;;;;5002440;28;20026;-79
2021/11/26 01:06:49;;;;;;;11.02;8.10;;;12.00;99.90;;;;;;5000727;28;20054;-81
2021/11/26 01:09:15;;;;;;;9.98;8.10;;;12.00;99.90;;;;;;4984792;28;20117;-81
2021/11/26 01:11:41;;;;;;;8.68;7.32;;;12.00;99.90;;;;;;5003184;28;20034;-81
2021/11/26 01:14:06;;;;;;;9.63;7.07;;;12.00;99.90;;;;;;4995760;28;20023;-78
2021/11/26 01:16:32;;;;;;;9.95;7.18;;;11.90;99.90;;;;;;4996540;28;20504;-81
2021/11/26 01:18:58;;;;;;;11.23;8.02;;;12.00;99.90;;;;;;4999965;28;20383;-82
2021/11/26 01:21:24;;;;;;;7.65;6.10;;;12.00;99.90;;;;;;5000624;28;20116;-82
2021/11/26 01:23:50;;;;;;;9.05;7.05;;;12.00;99.90;;;;;;4999091;28;20502;-82
2021/11/26 01:26:16;;;;;;;11.40;6.68;;;12.00;99.90;;;;;;4999768;28;20038;-78
2021/11/26 01:28:42;;;;;;;9.80;6.63;;;12.00;99.90;;;;;;4999454;28;20511;-82
2021/11/26 01:31:08;;;;;;;13.18;6.47;;;12.10;99.90;;;;;;5000201;28;20057;-82
2021/11/26 01:33:34;;;;;;;8.25;6.50;;;12.10;99.90;;;;;;5000332;28;20034;-82
2021/11/26 01:36:00;;;;;;;7.45;5.22;;;12.00;99.90;;;;;;5000654;28;20100;-81
2021/11/26 01:38:26;;;;;;;6.55;5.82;;;12.00;99.90;;;;;;4999802;28;20042;-82
2021/11/26 01:40:52;;;;;;;7.25;5.70;;;12.10;99.90;;;;;;5002410;28;20022;-81
2021/11/26 01:43:22;;;;;;;7.32;5.15;;;12.10;99.90;;;;;;5017867;28;20103;-82
2021/11/26 01:45:54;;;;;;;6.15;5.10;;;12.10;99.90;;;;;;5018943;28;20112;-82
2021/11/26 01:48:21;;;;;;;6.90;5.63;;;12.10;99.90;;;;;;5019139;28;20169;-81
2021/11/26 01:50:49;;;;;;;8.10;5.57;;;12.00;99.90;;;;;;5018928;28;20022;-78
2021/11/26 01:53:14;;;;;;;6.40;5.35;;;12.00;99.90;;;;;;5018828;28;20069;-81
2021/11/26 01:55:41;;;;;;;6.38;5.18;;;11.90;99.90;;;;;;5018002;28;20034;-82
2021/11/26 01:58:10;;;;;;;6.05;4.90;;;11.90;99.90;;;;;;5016839;28;20494;-83
2021/11/26 02:00:38;;;;;;;5.65;4.93;;;11.90;99.90;;;;;;5018843;28;20084;-83
2021/11/26 02:03:04;;;;;;;8.27;4.72;;;11.90;99.90;;;;;;5017394;28;20058;-81
2021/11/26 02:05:30;;;;;;;6.53;4.90;;;11.90;99.90;;;;;;5018228;28;20033;-77
2021/11/26 02:07:56;;;;;;;6.03;4.50;;;12.00;99.90;;;;;;5018399;28;20121;-82
2021/11/26 02:10:21;;;;;;;6.57;4.90;;;12.00;99.90;;;;;;5016842;28;20058;-82
2021/11/26 02:12:47;;;;;;;5.70;4.53;;;12.00;99.90;;;;;;5017249;28;20116;-80
2021/11/26 02:15:19;;;;;;;4.05;3.47;;;12.00;99.90;;;;;;5015391;28;20030;-82
2021/11/26 02:17:45;;;;;;;;;;;11.90;99.90;;;;;;5017223;28;20096;-83
2021/11/26 02:20:23;;;;;;;3.65;3.28;;;12.00;99.90;;;;;;5017219;28;19905;-83
2021/11/26 02:22:50;;;;;;;7.13;3.90;;;12.00;99.90;;;;;;5014357;28;20176;-81
2021/11/26 02:25:16;;;;;;;5.07;4.28;;;12.10;99.90;;;;;;5016665;28;20625;-83
2021/11/26 02:27:43;;;;;;;3.88;3.47;;;12.00;99.90;;;;;;5004717;28;20040;-82
2021/11/26 02:30:16;;;;;;;5.72;3.08;;;12.00;99.90;;;;;;4996650;28;20399;-83
2021/11/26 02:32:51;;;;;;;3.55;3.25;;;12.10;99.90;;;;;;5005743;28;20407;-80
2021/11/26 02:35:17;;;;;;;4.18;3.30;;;12.00;99.90;;;;;;4998616;28;20045;-78
2021/11/26 02:37:43;;;;;;;5.07;2.58;;;12.00;99.90;;;;;;5008579;28;20121;-80
2021/11/26 02:40:11;;;;;;;4.05;3.63;;;12.00;99.90;;;;;;5019905;28;20061;-83
2021/11/26 02:42:38;;;;;;;5.30;3.20;;;12.10;99.90;;;;;;5010075;28;20105;-82
2021/11/26 02:45:06;;;;;;;4.03;3.10;;;12.00;99.90;;;;;;5010095;28;20014;-84
2021/11/26 02:47:32;;;;;;;3.60;3.00;;;12.00;99.90;;;;;;5000078;28;20111;-83
2021/11/26 02:49:58;;;;;;;3.47;2.60;;;12.00;99.90;;;;;;5000906;28;20125;-83
2021/11/26 02:52:24;;;;;;;3.33;3.00;;;11.90;99.90;;;;;;4993866;28;20124;-83
2021/11/26 02:54:53;;;;;;;3.83;2.95;;;11.90;99.90;;;;;;4999656;28;20034;-82
2021/11/26 02:57:19;;;;;;;5.15;3.08;;;11.90;99.90;;;;;;4999763;28;20034;-82
2021/11/26 02:59:45;;;;;;;4.63;3.15;;;11.80;99.90;;;;;;5000196;28;20026;-83
2021/11/26 03:02:10;;;;;;;4.70;3.28;;;11.80;99.90;;;;;;4999092;28;20488;-83
2021/11/26 03:04:36;;;;;;;4.07;3.20;;;11.70;99.90;;;;;;4998585;28;20030;-81
2021/11/26 03:07:04;;;;;;;7.55;4.53;;;11.70;99.90;;;;;;4998017;28;20026;-83
2021/11/26 03:09:30;;;;;;;4.75;3.72;;;11.70;99.90;;;;;;4998953;28;20471;-81
2021/11/26 03:11:56;;;;;;;4.47;3.85;;;11.60;99.90;;;;;;4998211;28;20095;-81
2021/11/26 03:14:22;;;;;;;5.00;4.15;;;11.60;99.90;;;;;;4997827;28;20077;-83
2021/11/26 03:16:48;;;;;;;4.93;3.72;;;11.60;99.90;;;;;;4997162;28;20034;-83
2021/11/26 03:19:13;;;;;;;4.53;3.72;;;11.50;99.90;;;;;;4997469;28;20117;-82
2021/11/26 03:21:40;;;;;;;4.00;3.25;;;11.50;99.90;;;;;;4997813;28;20026;-82
2021/11/26 03:24:06;;;;;;;4.32;3.40;;;11.50;99.90;;;;;;4997973;28;20018;-81
2021/11/26 03:26:32;;;;;;;4.72;3.28;;;11.50;99.90;;;;;;4997835;28;20046;-84
2021/11/26 03:28:58;;;;;;;5.35;3.40;;;11.50;99.90;;;;;;4997255;28;20038;-79
2021/11/26 03:31:24;;;;;;;5.60;3.97;;;11.50;99.90;;;;;;4997336;28;20386;-84
2021/11/26 03:33:50;;;;;;;4.07;3.67;;;11.40;99.90;;;;;;4997360;28;20037;-83
2021/11/26 03:36:16;;;;;;;5.93;3.80;;;11.40;99.90;;;;;;4997232;28;20034;-79
2021/11/26 03:38:42;;;;;;;4.47;3.88;;;11.40;99.90;;;;;;4997362;28;20030;-84
2021/11/26 03:41:07;;;;;;;7.30;3.47;;;11.40;99.90;;;;;;4979515;28;20038;-79
2021/11/26 03:43:33;;;;;;;3.95;3.38;;;11.40;99.90;;;;;;4996851;28;20054;-83
2021/11/26 03:45:59;;;;;;;5.75;3.70;;;11.40;99.90;;;;;;4997294;28;20035;-82
2021/11/26 03:48:25;;;;;;;4.63;3.10;;;11.30;99.90;;;;;;4997596;28;20026;-83
2021/11/26 03:50:51;;;;;;;7.10;3.70;;;11.30;99.90;;;;;;4998374;28;20552;-83
2021/11/26 03:53:16;;;;;;;7.30;3.85;;;11.30;99.90;;;;;;4998435;28;20121;-83
2021/11/26 03:55:42;;;;;;;3.97;3.53;;;11.30;99.90;;;;;;4998281;28;20022;-84
2021/11/26 03:58:08;;;;;;;5.05;3.97;;;11.20;99.90;;;;;;4997919;28;20038;-82
2021/11/26 04:00:35;;;;;;;4.88;3.60;;;11.20;99.90;;;;;;4997356;28;20026;-83
2021/11/26 04:03:01;;;;;;;3.25;2.83;;;11.20;99.90;;;;;;4979848;28;20030;-83
2021/11/26 04:05:27;;;;;;;3.10;2.80;;;11.20;99.90;;;;;;4996620;28;20553;-83
2021/11/26 04:07:53;;;;;;;3.30;2.90;;;11.30;99.90;;;;;;4997150;28;20034;-83
2021/11/26 04:10:19;;;;;;;2.88;2.58;;;11.30;99.90;;;;;;4997810;28;20030;-83
2021/11/26 04:12:47;;;;;;;2.83;2.40;;;11.30;99.90;;;;;;4998075;28;20502;-81
2021/11/26 04:15:14;;;;;;;2.45;2.25;;;11.30;99.90;;;;;;4996889;28;20062;-82
2021/11/26 04:17:40;;;;;;;5.18;2.55;;;11.30;99.90;;;;;;4996787;28;20030;-83
2021/11/26 04:20:08;;;;;;;4.28;2.53;;;11.40;99.90;;;;;;4996759;28;20040;-83
2021/11/26 04:22:34;;;;;;;2.50;2.30;;;11.30;99.90;;;;;;4996770;28;20077;-80
2021/11/26 04:24:59;;;;;;;2.83;2.42;;;11.40;99.90;;;;;;4997207;28;20038;-83
2021/11/26 04:27:25;;;;;;;2.50;2.30;;;11.40;99.90;;;;;;4996586;28;20057;-83
2021/11/26 04:29:51;;;;;;;2.15;1.85;;;11.40;99.90;;;;;;4996469;28;20086;-79
2021/11/26 04:32:16;;;;;;;2.92;2.40;;;11.40;99.90;;;;;;4996028;28;20046;-82
2021/11/26 04:34:43;;;;;;;2.38;2.17;;;11.40;99.90;;;;;;4995959;28;20037;-82
2021/11/26 04:37:09;;;;;;;2.40;2.20;;;11.30;99.90;;;;;;4996512;28;20098;-82
2021/11/26 04:39:35;;;;;;;2.90;2.60;;;11.30;99.90;;;;;;4996225;28;20549;-83
2021/11/26 04:42:01;;;;;;;3.83;2.45;;;11.20;99.90;;;;;;4995628;28;20053;-83
2021/11/26 04:44:26;;;;;;;4.53;2.65;;;11.20;99.90;;;;;;4995484;28;20046;-83
2021/11/26 04:46:52;;;;;;;2.50;2.30;;;11.20;99.90;;;;;;4995369;28;20050;-83
2021/11/26 04:49:18;;;;;;;5.47;2.63;;;11.20;99.90;;;;;;4995317;28;20030;-84
2021/11/26 04:51:44;;;;;;;3.42;2.42;;;11.10;99.90;;;;;;4996161;28;20065;-83
2021/11/26 04:54:10;;;;;;;3.45;2.45;;;11.10;99.90;;;;;;4995999;28;20034;-82
2021/11/26 04:56:35;;;;;;;4.95;2.42;;;11.00;99.90;;;;;;4995752;28;20042;-83
2021/11/26 04:59:01;;;;;;;5.20;2.90;;;11.00;99.90;;;;;;4995315;28;20037;-81
2021/11/26 05:01:27;;;;;;;3.85;2.70;;;11.00;99.90;;;;;;4995542;28;20037;-82
2021/11/26 05:03:53;;;;;;;3.72;2.90;;;11.00;99.90;;;;;;4995306;28;20515;-81
2021/11/26 05:06:21;;;;;;;3.15;2.85;;;10.90;99.90;;;;;;4994431;28;20035;-83
2021/11/26 05:08:47;;;;;;;6.30;3.10;;;10.90;99.90;;;;;;4995067;28;20113;-83
2021/11/26 05:11:12;;;;;;;3.00;2.70;;;10.90;99.90;;;;;;4996204;28;20607;-82
2021/11/26 05:13:44;;;;;;;3.80;3.28;;;10.80;99.90;;;;;;4995879;28;20023;-83
2021/11/26 05:16:13;;;;;;;3.40;3.05;;;10.70;99.90;;;;;;4996215;28;20034;-83
2021/11/26 05:18:40;;;;;;;3.50;2.85;;;10.60;99.90;;;;;;4995875;28;20679;-82
2021/11/26 05:21:06;;;;;;;8.65;3.40;;;10.60;99.90;;;;;;4996019;28;20034;-77
2021/11/26 05:23:32;;;;;;;5.15;3.95;;;10.60;99.90;;;;;;4996226;28;20057;-83
2021/11/26 05:25:57;;;;;;;5.10;3.53;;;10.50;99.90;;;;;;4995407;28;20719;-82
2021/11/26 05:28:23;;;;;;;5.90;3.42;;;10.50;99.90;;;;;;4995596;28;20031;-82
2021/11/26 05:30:49;;;;;;;4.10;3.70;;;10.40;99.90;;;;;;4995552;28;20054;-82
2021/11/26 05:33:15;;;;;;;3.85;3.30;;;10.40;99.90;;;;;;4995708;28;20035;-83
2021/11/26 05:35:41;;;;;;;5.20;3.22;;;10.40;99.90;;;;;;4995250;28;20560;-83
2021/11/26 05:38:06;;;;;;;6.03;3.83;;;10.30;99.90;;;;;;4978806;28;20038;-82
2021/11/26 05:40:32;;;;;;;4.80;3.30;;;10.30;99.90;;;;;;4978945;28;20031;-83
2021/11/26 05:42:58;;;;;;;4.00;3.47;;;10.30;99.90;;;;;;4998366;28;20062;-82
2021/11/26 05:45:24;;;;;;;5.13;3.38;;;10.30;99.90;;;;;;4999085;28;20123;-82
2021/11/26 05:47:50;;;;;;;4.32;3.40;;;10.30;99.90;;;;;;4998488;28;20045;-81
2021/11/26 05:50:19;;;;;;;3.40;3.00;;;10.20;99.90;;;;;;4983800;28;20034;-79
2021/11/26 05:52:45;;;;;;;4.22;3.40;;;10.30;99.90;;;;;;5002992;28;20495;-82
2021/11/26 05:55:14;;;;;;;4.57;2.97;;;10.30;99.90;;;;;;5001444;28;20026;-82
2021/11/26 05:57:40;;;;;;;4.10;3.30;;;10.30;99.90;;;;;;5000843;28;20031;-82
2021/11/26 06:00:09;;;;;;;4.07;3.00;;;10.30;99.90;;;;;;5000051;28;20066;-81
2021/11/26 06:02:34;;;;;;;4.40;3.22;;;10.20;99.90;;;;;;5004059;28;20037;-81
2021/11/26 06:05:00;;;;;;;4.28;3.33;;;10.20;99.90;;;;;;5003775;28;20023;-79
2021/11/26 06:07:26;;;;;;;6.93;2.83;;;10.20;99.90;;;;;;5020795;28;20253;-81
2021/11/26 06:09:52;;;;;;;4.97;2.90;;;10.20;99.90;;;;;;5024752;28;20026;-81
2021/11/26 06:12:17;;;;;;;3.80;2.75;;;10.20;99.90;;;;;;5029994;28;20029;-83
2021/11/26 06:14:43;;;;;;;3.72;2.72;;;10.20;99.90;;;;;;5030746;28;20418;-82
2021/11/26 06:17:09;;;;;;;3.30;2.92;;;10.20;99.90;;;;;;5012727;28;20073;-81
2021/11/26 06:19:35;;;;;;;4.03;2.53;;;10.20;99.90;;;;;;5027690;28;20026;-80
2021/11/26 06:22:00;;;;;;;3.75;3.28;;;10.30;99.90;;;;;;5029035;28;20558;-81
2021/11/26 06:24:27;;;;;;;4.00;3.25;;;10.20;99.90;;;;;;5018089;28;20065;-83
2021/11/26 06:26:52;;;;;;;3.17;2.85;;;10.20;99.90;;;;;;4997385;28;20208;-82
2021/11/26 06:29:18;;;;;;;4.40;2.85;;;10.20;99.90;;;;;;4996533;28;20109;-82
2021/11/26 06:31:44;;;;;;;3.50;2.92;;;10.20;99.90;;;;;;4996506;28;20046;-81
2021/11/26 06:34:10;;;;;;;3.05;2.75;;;10.20;99.90;;;;;;4990291;28;20467;-82
2021/11/26 06:36:37;;;;;;;3.50;2.72;;;10.30;99.90;;;;;;4977598;28;20053;-82
2021/11/26 06:39:04;;;;;;;8.00;2.70;;;10.30;99.90;;;;;;5012243;28;20036;-81
2021/11/26 06:41:30;;;;;;;2.78;2.28;;;10.30;99.90;;;;;;5005943;28;20031;-81
2021/11/26 06:43:56;;;;;;;3.70;2.47;;;10.30;99.90;;;;;;5000805;28;20030;-83
2021/11/26 06:46:21;;;;;;;6.88;2.33;;;10.30;99.90;;;;;;5000673;28;20038;-83
2021/11/26 06:48:47;;;;;;;2.92;2.40;;;10.30;99.90;;;;;;4996811;28;20109;-82
2021/11/26 06:51:13;;;;;;;3.05;2.58;;;10.30;99.90;;;;;;4996451;28;20042;-81
2021/11/26 06:53:38;;;;;;;2.30;2.10;;;10.30;99.90;;;;;;4997144;28;20041;-82
2021/11/26 06:56:04;;;;;;;9.02;2.67;;;10.30;99.90;;;;;;4997194;28;20027;-82
2021/11/26 06:58:30;;;;;;;3.97;2.53;;;10.30;99.90;;;;;;4995869;28;20045;-82
2021/11/26 07:00:57;;;;;;;7.07;2.70;;;10.30;99.90;;;;;;4995559;28;20472;-82
2021/11/26 07:03:22;;;;;;;3.85;2.83;;;10.30;99.90;;;;;;4995840;28;20121;-82
2021/11/26 07:05:48;;;;;;;3.72;2.33;;;10.30;99.90;;;;;;4995763;28;20121;-79
2021/11/26 07:08:16;;;;;;;4.43;2.65;;;10.30;99.90;;;;;;4992794;28;20108;-83
2021/11/26 07:10:42;;;;;;;6.50;2.28;;;10.30;99.90;;;;;;4992934;28;20022;-84
2021/11/26 07:13:08;;;;;;;3.33;2.53;;;10.30;99.90;;;;;;4995779;28;20127;-82
2021/11/26 07:15:33;;;;;;;3.25;2.58;;;10.30;99.90;;;;;;4978254;28;20045;-77
2021/11/26 07:17:59;;;;;;;7.97;3.10;;;10.30;99.90;;;;;;4995853;28;20030;-83
2021/11/26 07:20:25;;;;;;;5.03;2.75;;;10.30;99.90;;;;;;4995570;28;20391;-83
2021/11/26 07:22:50;;;;;;;5.72;2.92;;;10.30;99.90;;;;;;4997017;28;20157;-82
2021/11/26 07:25:16;;;;;;;8.82;3.08;;;10.40;99.90;;;;;;4999634;28;20085;-80
2021/11/26 07:27:42;;;;;;;6.18;2.70;;;10.40;99.90;;;;;;4997646;28;20388;-83
2021/11/26 07:30:10;;;;;;;6.45;3.83;;;10.40;99.90;;;;;;4978456;28;20053;-83
2021/11/26 07:32:36;;;;;;;4.90;3.10;;;10.50;99.90;;;;;;4995617;28;20026;-83
2021/11/26 07:35:03;;;;;;;7.35;3.80;;;10.60;99.90;;;;;;4996058;28;20035;-82
2021/11/26 07:37:29;;;;;;;15.80;4.07;;;10.60;99.90;;;;;;4995671;28;20497;-81
2021/11/26 07:39:54;;;;;;;5.05;3.38;;;10.60;99.90;;;;;;4995750;28;20042;-81
2021/11/26 07:42:20;;;;;;;8.05;3.97;;;10.60;99.90;;;;;;5001869;28;20042;-79
2021/11/26 07:44:46;;;;;;;10.07;4.95;;;10.60;99.90;;;;;;5005799;28;20038;-79
2021/11/26 07:47:15;;;;;;;6.82;4.55;;;10.60;99.90;;;;;;5004075;28;20038;-81
2021/11/26 07:49:41;;;;;;;9.82;5.05;;;10.60;99.90;;;;;;5008305;28;20033;-81
2021/11/26 07:52:10;;;;;;;8.80;5.20;;;10.70;99.90;;;;;;5007666;28;20510;-80
2021/11/26 07:54:36;;;;;;;13.68;5.45;;;10.60;99.90;;;;;;5003169;28;20022;-80
2021/11/26 07:57:02;;;;;;;9.63;4.78;;;10.60;99.90;;;;;;5016493;28;20125;-80
2021/11/26 07:59:27;;;;;;;6.50;4.20;;;10.60;99.90;;;;;;5016279;28;20037;-81
2021/11/26 08:01:54;;;;;;;6.13;4.35;;;10.60;99.90;;;;;;5018825;28;20033;-80
2021/11/26 08:04:20;;;;;;;7.20;4.15;;;10.60;99.90;;;;;;5016056;28;20053;-80
2021/11/26 08:06:46;;;;;;;7.10;3.72;;;10.60;99.90;;;;;;5000157;28;20495;-80
2021/11/26 08:09:17;;;;;;;7.85;4.45;;;10.60;99.90;;;;;;5015970;28;20034;-80
2021/11/26 08:11:44;;;;;;;6.18;3.70;;;10.60;99.90;;;;;;5015238;28;20495;-81
2021/11/26 08:14:10;;;;;;;7.32;4.53;;;10.60;99.90;;;;;;5015796;28;20037;-81
2021/11/26 08:16:36;;;;;;;12.23;5.22;;;10.50;99.90;;;;;;5015118;28;20038;-81
2021/11/26 08:19:04;;;;;;;8.75;5.97;;;10.50;99.90;;;;;;4996523;28;20053;-80
2021/11/26 08:21:30;;;;;;;9.57;6.60;;;10.50;99.90;;;;;;4997296;28;20034;-81
2021/11/26 08:23:55;;;;;;;10.20;7.18;;;10.50;99.90;;;;;;4996500;28;20029;-82
2021/11/26 08:26:21;;;;;;;10.27;7.15;;;10.40;99.90;;;;;;4995260;28;20042;-81
2021/11/26 08:28:47;;;;;;;15.95;8.73;;;10.50;99.90;;;;;;4978379;28;20044;-79
2021/11/26 08:31:13;;;;;;;13.30;9.52;;;10.50;99.90;;;;;;4992691;28;20368;-82
2021/11/26 08:33:39;;;;;;;16.48;9.65;;;10.50;99.90;;;;;;4994226;28;20066;-82
2021/11/26 08:36:05;;;;;;;13.65;9.43;;;10.60;99.90;;;;;;4995701;28;20034;-82
2021/11/26 08:38:31;;;;;;;13.38;9.77;;;10.60;99.90;;;;;;4994718;28;20060;-83
2021/11/26 08:40:56;;;;;;;14.52;10.07;;;10.60;99.90;;;;;;4995731;28;20030;-83
2021/11/26 08:43:22;;;;;;;13.75;9.88;;;10.60;99.90;;;;;;4994461;28;20049;-83
2021/11/26 08:45:48;;;;;;;12.90;9.57;;;10.50;99.90;;;;;;4993784;28;20042;-83
2021/11/26 08:48:14;;;;;;;13.30;9.65;;;10.60;99.90;;;;;;4989101;28;20048;-80
2021/11/26 08:50:41;;;;;;;15.07;9.68;;;10.60;99.90;;;;;;4994728;28;20502;-83
2021/11/26 08:53:08;;;;;;;15.13;9.55;;;10.60;99.90;;;;;;4994417;28;20034;-83
2021/11/26 08:55:34;;;;;;;16.35;9.68;;;10.60;99.90;;;;;;4996128;28;20034;-76
2021/11/26 08:58:01;;;;;;;14.77;9.70;;;10.70;99.90;;;;;;4994334;28;20031;-83
2021/11/26 09:00:31;;;;;;;14.55;9.18;;;10.70;99.90;;;;;;4994362;28;20046;-83
2021/11/26 09:02:59;;;;;;;13.90;10.23;;;10.60;99.90;;;;;;4994688;28;20034;-83
2021/11/26 09:05:26;;;;;;;15.55;11.43;;;10.70;99.90;;;;;;4994100;28;20118;-82
2021/11/26 09:07:59;;;;;;;23.05;9.95;;;10.80;99.90;;;;;;4994175;28;20109;-83
2021/11/26 09:10:26;;;;;;;10.80;7.32;;;10.80;99.90;;;;;;4974553;28;20509;-82
2021/11/26 09:12:52;;;;;;;11.65;5.72;;;10.80;99.90;;;;;;4991465;28;20039;-84
2021/11/26 09:15:18;;;;;;;8.68;5.25;;;10.80;99.90;;;;;;4990372;28;20464;-83
2021/11/26 09:17:45;;;;;;;7.28;5.13;;;10.80;99.90;;;;;;4988500;28;20088;-84
2021/11/26 09:20:11;;;;;;;14.20;6.78;;;10.80;99.90;;;;;;4974055;28;20046;-81
2021/11/26 09:22:37;;;;;;;9.70;5.75;;;10.80;99.90;;;;;;4991364;28;20113;-83
2021/11/26 09:25:04;;;;;;;8.75;5.40;;;10.80;99.90;;;;;;4975612;28;20443;-82
2021/11/26 09:27:30;;;;;;;17.40;5.80;;;10.80;99.90;;;;;;4993149;28;20050;-83
2021/11/26 09:29:56;;;;;;;15.77;5.90;;;10.80;99.90;;;;;;4992875;28;20038;-83
2021/11/26 09:32:22;;;;;;;9.70;6.10;;;10.80;99.90;;;;;;4992200;28;20702;-82
2021/11/26 09:34:48;;;;;;;8.27;5.57;;;10.80;99.90;;;;;;4992534;28;20050;-83
2021/11/26 09:37:15;;;;;;;11.52;5.85;;;10.80;99.90;;;;;;4993345;28;20042;-79
2021/11/26 09:39:41;;;;;;;13.15;6.65;;;10.80;99.90;;;;;;4993767;28;20090;-83
2021/11/26 09:42:07;;;;;;;15.38;6.40;;;10.80;99.90;;;;;;5005141;28;20046;-82
2021/11/26 09:44:35;;;;;;;12.80;6.93;;;10.80;99.90;;;;;;5013077;28;20025;-78
2021/11/26 09:47:02;;;;;;;10.20;6.90;;;10.80;99.90;;;;;;4995445;28;20450;-82
2021/11/26 09:49:29;;;;;;;17.92;7.88;;;10.80;99.90;;;;;;5013532;28;20496;-82
2021/11/26 09:51:56;;;;;;;16.30;9.55;;;10.80;99.90;;;;;;5013429;28;20030;-82
2021/11/26 09:54:21;;;;;;;18.02;10.98;;;10.70;99.90;;;;;;5013587;28;20111;-81
2021/11/26 09:56:47;;;;;;;12.43;7.93;;;10.70;99.90;;;;;;5003206;28;20479;-81
2021/11/26 09:59:13;;;;;;;16.08;9.27;;;10.70;99.90;;;;;;5024583;28;20030;-80
2021/11/26 10:01:39;;;;;;;23.48;12.95;;;10.60;99.90;;;;;;5021302;28;20530;-81
2021/11/26 10:04:19;;;;;;;18.95;14.63;;;10.70;99.90;;;;;;5020790;28;20030;-80
2021/11/26 10:06:45;;;;;;;18.77;13.40;;;10.70;99.90;;;;;;5017699;28;20102;-81
2021/11/26 10:09:17;;;;;;;23.95;16.20;;;10.60;99.90;;;;;;5018938;28;20022;-81
2021/11/26 10:11:47;;;;;;;24.77;13.75;;;10.70;99.90;;;;;;5015577;28;20038;-82
2021/11/26 10:14:13;;;;;;;25.67;14.57;;;10.70;99.90;;;;;;5014688;28;20386;-82
2021/11/26 10:16:44;;;;;;;15.50;10.52;;;10.70;99.90;;;;;;5013676;28;20041;-82
2021/11/26 10:19:11;;;;;;;12.10;8.63;;;10.70;99.90;;;;;;5014830;28;20501;-82
2021/11/26 10:21:37;;;;;;;12.77;9.00;;;10.70;99.90;;;;;;4996239;28;20061;-83
2021/11/26 10:24:02;;;;;;;15.30;8.25;;;10.70;99.90;;;;;;5017425;28;20030;-82
2021/11/26 10:26:29;;;;;;;16.02;9.30;;;10.70;99.90;;;;;;5001273;28;20122;-80
2021/11/26 10:29:02;;;;;;;13.60;10.65;;;10.70;99.90;;;;;;4995516;28;20031;-82
2021/11/26 10:31:36;;;;;;;20.38;12.18;;;10.70;99.90;;;;;;4995634;28;20364;-81
2021/11/26 10:34:07;;;;;;;17.48;10.52;;;10.60;99.90;;;;;;4997533;28;20026;-81
2021/11/26 10:36:49;;;;;;;13.60;9.40;;;10.60;99.90;;;;;;4993181;28;20046;-81
2021/11/26 10:39:20;;;;;;;13.75;10.18;;;10.60;99.90;;;;;;4975603;28;20410;-82
2021/11/26 10:41:52;;;;;;;14.52;8.82;;;10.60;99.90;;;;;;4992916;28;20105;-75
2021/11/26 10:44:21;;;;;;;12.68;9.27;;;10.60;99.90;;;;;;4991926;28;20030;-81
2021/11/26 10:47:04;;;;;;;12.55;9.93;;;10.60;99.90;;;;;;4992501;28;20054;-83
2021/11/26 11:00:10;;;;;;;11.63;8.45;;;10.60;99.90;;;;;;4976132;28;20070;-81
2021/11/26 11:02:41;;;;;;;10.68;7.63;;;10.70;99.90;;;;;;4976330;28;20471;-82
2021/11/26 11:05:10;;;;;;;11.85;7.50;;;10.70;99.90;;;;;;4976151;28;20094;-83
2021/11/26 11:07:44;;;;;;;11.40;7.57;;;10.80;99.90;;;;;;4974736;28;20043;-82
2021/11/26 11:10:23;;;;;;;9.57;7.25;;;10.80;99.90;;;;;;4976126;28;20109;-82
2021/11/26 11:12:49;;;;;;;12.30;7.80;;;10.80;99.90;;;;;;4992209;28;20038;-82
2021/11/26 11:15:15;;;;;;;7.85;5.93;;;10.90;99.90;;;;;;4995592;28;20541;-82
2021/11/26 11:17:41;;;;;;;9.60;6.32;;;10.80;99.90;;;;;;4995444;28;20061;-82
2021/11/26 11:20:10;;;;;;;9.95;6.72;;;10.80;99.90;;;;;;4995412;28;20030;-82
2021/11/26 11:22:37;;;;;;;12.18;6.90;;;10.80;99.90;;;;;;4995154;28;20035;-82
2021/11/26 11:25:06;;;;;;;12.55;6.97;;;10.80;99.90;;;;;;4994817;28;20042;-82
2021/11/26 11:27:32;;;;;;;13.98;9.20;;;10.80;99.90;;;;;;4995006;28;20050;-82
2021/11/26 11:29:57;;;;;;;14.07;7.82;;;10.80;99.90;;;;;;5011785;28;20056;-82
2021/11/26 11:32:26;;;;;;;15.63;9.77;;;10.80;99.90;;;;;;5014594;28;20577;-82
2021/11/26 11:34:54;;;;;;;13.65;9.73;;;10.80;99.90;;;;;;5014635;28;20026;-83
2021/11/26 11:37:27;;;;;;;18.42;12.27;;;10.80;99.90;;;;;;4997733;28;20426;-83
2021/11/26 11:39:54;;;;;;;17.55;10.20;;;10.80;99.90;;;;;;4995285;28;20029;-83
2021/11/26 11:42:35;;;;;;;12.90;9.30;;;10.80;99.90;;;;;;4978890;28;20034;-83
2021/11/26 11:45:10;;;;;;;23.00;11.73;;;10.80;99.90;;;;;;4996201;28;20089;-83
2021/11/26 11:47:43;;;;;;;19.45;12.75;;;10.70;99.90;;;;;;4995580;28;20046;-83
2021/11/26 11:50:31;;;;;;;16.63;12.25;;;10.80;99.90;;;;;;4978218;28;20030;-84
2021/11/26 11:53:01;;;;;;;32.17;16.90;;;10.80;99.90;;;;;;4978074;28;20043;-83
2021/11/26 11:55:37;;;;;;;37.72;17.98;;;10.80;99.90;;;;;;4979138;28;20030;-84
2021/11/26 11:58:13;;;;;;;30.17;16.58;;;10.80;99.90;;;;;;4995087;28;20516;-84
2021/11/26 12:00:41;;;;;;;32.50;16.83;;;10.80;99.90;;;;;;4996234;28;20042;-83
2021/11/26 12:03:15;;;;;;;18.85;9.65;;;10.80;99.90;;;;;;4996028;28;20046;-83
2021/11/26 12:05:42;;;;;;;13.30;9.48;;;10.80;99.90;;;;;;4977718;28;20125;-83
2021/11/26 12:08:14;;;;;;;11.82;7.80;;;10.80;99.90;;;;;;4995153;28;20034;-84
2021/11/26 12:10:53;;;;;;;13.00;8.00;;;10.80;99.90;;;;;;4995354;28;20069;-83
2021/11/26 12:13:23;;;;;;;12.18;7.05;;;10.80;99.90;;;;;;4995211;28;20034;-84
2021/11/26 12:15:51;;;;;;;11.13;6.15;;;10.80;99.90;;;;;;4995402;28;20432;-83
2021/11/26 12:18:17;;;;;;;6.95;5.95;;;10.80;99.90;;;;;;4977916;28;20066;-83
2021/11/26 12:20:47;;;;;;;8.18;6.38;;;10.80;99.90;;;;;;4995387;28;20058;-83
2021/11/26 12:23:22;;;;;;;10.48;7.13;;;10.90;99.90;;;;;;4995049;28;20022;-84
2021/11/26 12:28:49;;;;;;;11.38;5.30;;;10.90;99.90;;;;;;4995124;28;20387;-83
2021/11/26 12:31:15;;;;;;;6.35;4.95;;;10.90;99.90;;;;;;4994966;28;20042;-83
2021/11/26 12:33:42;;;;;;;6.03;4.85;;;10.90;99.90;;;;;;4997666;28;20046;-83
2021/11/26 12:36:11;;;;;;;10.93;5.30;;;11.00;99.90;;;;;;4995230;28;20054;-84
2021/11/26 12:38:44;;;;;;;8.45;4.68;;;11.00;99.90;;;;;;4993507;28;20030;-83
2021/11/26 12:41:13;;;;;;;7.75;5.00;;;11.00;99.90;;;;;;4992860;28;20554;-82
2021/11/26 12:43:45;;;;;;;6.78;5.15;;;11.00;99.90;;;;;;4994729;28;20038;-84
2021/11/26 12:46:23;;;;;;;7.72;5.35;;;11.00;99.90;;;;;;4991748;28;20412;-82
2021/11/26 12:49:15;;;;;;;7.80;6.50;;;11.00;99.90;;;;;;4978662;28;20053;-83
2021/11/26 12:51:43;;;;;;;13.70;8.50;;;11.00;99.90;;;;;;4973271;28;20026;-83
2021/11/26 12:54:19;;;;;;;10.63;6.82;;;11.00;99.90;;;;;;4992882;28;20096;-82
2021/11/26 12:56:48;;;;;;;6.95;5.43;;;11.00;99.90;;;;;;4992622;28;20072;-83
2021/11/26 12:59:14;;;;;;;6.65;5.45;;;11.00;99.90;;;;;;4992922;28;20165;-82